createdAt,value
2023-03-29T00:00:27.083Z,6.1410
2023-03-29T00:01:35.965Z,6.1433
2023-03-29T00:02:33.708Z,6.0012
2023-03-29T00:03:36.399Z,5.9169
2023-03-29T00:05:41.232Z,5.7471
2023-03-29T00:06:43.791Z,5.5922
2023-03-29T00:08:48.593Z,5.4410
2023-03-29T00:09:51.073Z,5.3643
2023-03-29T00:10:53.616Z,5.2569
2023-03-29T00:11:56.140Z,5.2144
2023-03-29T00:14:00.996Z,5.5350
2023-03-29T00:15:03.436Z,5.6369
2023-03-29T00:16:05.999Z,5.6125
2023-03-29T00:17:08.544Z,5.7019
2023-03-29T00:18:11.206Z,5.7368
2023-03-29T00:19:13.694Z,5.7490
2023-03-29T00:20:16.241Z,5.8478
2023-03-29T00:22:21.040Z,5.8125
2023-03-29T00:23:23.528Z,5.9108
2023-03-29T00:25:28.413Z,6.0420
2023-03-29T00:26:30.861Z,6.0090
2023-03-29T00:27:33.349Z,6.0063
2023-03-29T00:28:35.901Z,5.8469
2023-03-29T00:30:40.722Z,5.9041
2023-03-29T00:31:43.211Z,5.8434
2023-03-29T00:33:48.070Z,6.0307
2023-03-29T00:34:50.593Z,6.3441
2023-03-29T00:35:53.089Z,6.2947
2023-03-29T00:36:55.605Z,6.1681
2023-03-29T00:37:58.132Z,6.1269
2023-03-29T00:39:00.615Z,6.1440
2023-03-29T00:40:03.131Z,6.2608
2023-03-29T00:42:07.921Z,6.0388
2023-03-29T00:43:10.371Z,5.9972
2023-03-29T00:45:15.234Z,6.3500
2023-03-29T00:47:20.166Z,6.4927
2023-03-29T00:48:22.624Z,6.4317
2023-03-29T00:50:27.478Z,6.4219
2023-03-29T00:51:29.967Z,6.3392
2023-03-29T00:52:32.437Z,6.2877
2023-03-29T00:53:34.914Z,6.2215
2023-03-29T00:54:37.440Z,6.1412
2023-03-29T00:55:39.948Z,6.1475
2023-03-29T00:56:42.590Z,6.2238
2023-03-29T00:58:47.398Z,6.4628
2023-03-29T00:59:49.848Z,6.4315
2023-03-29T01:00:52.435Z,6.3336
2023-03-29T01:01:55.232Z,6.3006
2023-03-29T01:02:58.264Z,6.4441
2023-03-29T01:05:03.192Z,6.6899
2023-03-29T01:06:05.752Z,6.7624
2023-03-29T01:08:10.617Z,6.7702
2023-03-29T01:09:13.153Z,6.7405
2023-03-29T01:10:15.685Z,6.7872
2023-03-29T01:11:18.188Z,6.7742
2023-03-29T01:13:23.168Z,6.7416
2023-03-29T01:14:25.670Z,6.6310
2023-03-29T01:15:28.258Z,6.6608
2023-03-29T01:16:30.812Z,6.6670
2023-03-29T01:19:38.202Z,6.5551
2023-03-29T01:21:43.128Z,6.7420
2023-03-29T01:22:45.723Z,6.7695
2023-03-29T01:24:50.587Z,6.8309
2023-03-29T01:25:53.130Z,6.7853
2023-03-29T01:26:55.636Z,6.7164
2023-03-29T01:27:58.145Z,6.6403
2023-03-29T01:29:00.690Z,6.6789
2023-03-29T01:30:03.172Z,6.6453
2023-03-29T01:31:05.734Z,6.6039
2023-03-29T01:33:10.624Z,6.6350
2023-03-29T01:34:13.189Z,6.6630
2023-03-29T01:35:15.668Z,6.6455
2023-03-29T01:36:18.274Z,6.5755
2023-03-29T01:37:20.838Z,6.4778
2023-03-29T01:38:23.404Z,6.4294
2023-03-29T01:39:25.871Z,6.3334
2023-03-29T01:41:30.752Z,6.4815
2023-03-29T01:42:33.296Z,6.5188
2023-03-29T01:43:35.900Z,6.5154
2023-03-29T01:44:38.435Z,6.5085
2023-03-29T01:45:40.892Z,6.5837
2023-03-29T01:46:43.439Z,6.6608
2023-03-29T01:47:46.060Z,6.6943
2023-03-29T01:49:50.939Z,6.6903
2023-03-29T01:50:53.547Z,6.6018
2023-03-29T01:51:56.101Z,6.5906
2023-03-29T01:52:58.640Z,6.5639
2023-03-29T01:55:03.490Z,6.5257
2023-03-29T01:56:05.959Z,6.5436
2023-03-29T01:57:08.498Z,6.6199
2023-03-29T01:58:10.953Z,6.5639
2023-03-29T01:59:13.508Z,6.5007
2023-03-29T02:00:16.066Z,6.4649
2023-03-29T02:01:18.600Z,6.5482
2023-03-29T02:02:21.169Z,6.5150
2023-03-29T02:03:23.794Z,6.3497
2023-03-29T02:04:26.406Z,6.3685
2023-03-29T02:06:31.272Z,6.4845
2023-03-29T02:08:36.087Z,6.3098
2023-03-29T02:09:38.635Z,6.3880
2023-03-29T02:10:41.113Z,6.3519
2023-03-29T02:11:43.578Z,6.3056
2023-03-29T02:12:46.166Z,6.1742
2023-03-29T02:13:48.713Z,6.3344
2023-03-29T02:14:51.200Z,6.4422
2023-03-29T02:15:53.748Z,6.3933
2023-03-29T02:17:58.619Z,6.1313
2023-03-29T02:19:01.392Z,6.1088
2023-03-29T02:20:03.846Z,6.2087
2023-03-29T02:21:06.402Z,6.1332
2023-03-29T02:22:08.891Z,6.0546
2023-03-29T02:23:11.433Z,6.0147
2023-03-29T02:25:16.278Z,5.9394
2023-03-29T02:26:18.790Z,6.0979
2023-03-29T02:27:21.332Z,6.3067
2023-03-29T02:28:23.790Z,6.2453
2023-03-29T02:29:26.336Z,6.2558
2023-03-29T02:31:31.269Z,6.1532
2023-03-29T02:33:36.089Z,6.2303
2023-03-29T02:34:38.672Z,6.1913
2023-03-29T02:36:43.552Z,6.3148
2023-03-29T02:37:46.061Z,6.2415
2023-03-29T02:38:48.563Z,6.2053
2023-03-29T02:39:51.085Z,6.4870
2023-03-29T02:41:55.934Z,6.4425
2023-03-29T02:42:58.416Z,6.5642
2023-03-29T02:44:00.990Z,6.4805
2023-03-29T02:45:03.538Z,6.3199
2023-03-29T02:47:08.390Z,6.1147
2023-03-29T02:49:13.266Z,5.9854
2023-03-29T02:50:15.796Z,5.9039
2023-03-29T02:51:20.016Z,5.9592
2023-03-29T02:52:18.413Z,5.8772
2023-03-29T02:53:21.067Z,5.9516
2023-03-29T02:54:23.565Z,5.9796
2023-03-29T02:55:26.163Z,6.3729
2023-03-29T02:56:28.680Z,6.2755
2023-03-29T02:57:31.198Z,6.1614
2023-03-29T02:58:33.753Z,6.0155
2023-03-29T02:59:36.255Z,5.9422
2023-03-29T03:00:38.836Z,5.8566
2023-03-29T03:01:41.331Z,5.9380
2023-03-29T03:03:46.374Z,5.8228
2023-03-29T03:04:48.966Z,5.8249
2023-03-29T03:06:53.851Z,5.8225
2023-03-29T03:07:56.387Z,5.7910
2023-03-29T03:08:58.905Z,5.8724
2023-03-29T03:10:01.469Z,6.0441
2023-03-29T03:11:04.226Z,5.9945
2023-03-29T03:13:09.520Z,6.1324
2023-03-29T03:14:12.022Z,6.2255
2023-03-29T03:15:14.573Z,6.2165
2023-03-29T03:16:17.070Z,6.1311
2023-03-29T03:18:21.930Z,5.9588
2023-03-29T03:19:24.468Z,5.9079
2023-03-29T03:20:27.076Z,5.8829
2023-03-29T03:21:29.596Z,5.7528
2023-03-29T03:23:34.610Z,5.7666
2023-03-29T03:24:37.114Z,5.8238
2023-03-29T03:25:39.653Z,5.9148
2023-03-29T03:26:42.138Z,5.9737
2023-03-29T03:31:54.349Z,6.7466
2023-03-29T03:32:57.156Z,6.8904
2023-03-29T03:33:59.684Z,6.7323
2023-03-29T03:35:02.237Z,6.6943
2023-03-29T03:36:04.830Z,6.5917
2023-03-29T03:37:07.336Z,6.5452
2023-03-29T03:38:09.894Z,6.4082
2023-03-29T03:39:12.394Z,6.2951
2023-03-29T03:40:14.949Z,6.3531
2023-03-29T03:41:17.415Z,6.4042
2023-03-29T03:42:19.957Z,6.4874
2023-03-29T03:43:22.610Z,6.3910
2023-03-29T03:45:27.626Z,6.3064
2023-03-29T03:47:32.661Z,6.2503
2023-03-29T03:48:35.143Z,6.1763
2023-03-29T03:49:37.641Z,6.0597
2023-03-29T03:50:40.115Z,5.9535
2023-03-29T03:51:42.642Z,5.8692
2023-03-29T03:52:45.219Z,5.8570
2023-03-29T03:53:47.706Z,5.8423
2023-03-29T03:54:50.245Z,5.9079
2023-03-29T03:55:52.852Z,5.7578
2023-03-29T03:56:55.401Z,5.8925
2023-03-29T03:57:57.959Z,5.9749
2023-03-29T03:59:00.550Z,5.9436
2023-03-29T04:00:03.141Z,5.8473
2023-03-29T04:01:05.584Z,6.0761
2023-03-29T04:02:08.138Z,6.4061
2023-03-29T04:04:13.047Z,6.4637
2023-03-29T04:05:15.493Z,6.3098
2023-03-29T04:06:18.086Z,6.1978
2023-03-29T04:07:20.592Z,6.2646
2023-03-29T04:08:23.171Z,6.4958
2023-03-29T04:10:27.982Z,6.3830
2023-03-29T04:11:30.481Z,6.2621
2023-03-29T04:12:33.033Z,6.1772
2023-03-29T04:13:35.576Z,6.7000
2023-03-29T04:15:40.398Z,6.6115
2023-03-29T04:16:42.964Z,6.5496
2023-03-29T04:18:47.829Z,6.7374
2023-03-29T04:19:50.376Z,6.5951
2023-03-29T04:20:52.947Z,6.5888
2023-03-29T04:21:55.390Z,6.5843
2023-03-29T04:22:57.887Z,6.5391
2023-03-29T04:25:02.715Z,6.6854
2023-03-29T04:26:05.266Z,6.7254
2023-03-29T04:28:10.209Z,6.9005
2023-03-29T04:29:12.724Z,7.0996
2023-03-29T04:30:15.229Z,7.0804
2023-03-29T04:31:17.782Z,7.0291
2023-03-29T04:32:20.277Z,6.9108
2023-03-29T04:33:22.776Z,6.8723
2023-03-29T04:34:25.264Z,6.8494
2023-03-29T04:35:27.739Z,6.8446
2023-03-29T04:37:32.646Z,6.7514
2023-03-29T04:38:35.153Z,6.6121
2023-03-29T04:39:37.647Z,6.5784
2023-03-29T04:40:40.141Z,6.7102
2023-03-29T04:42:44.976Z,6.6436
2023-03-29T04:43:47.509Z,6.7782
2023-03-29T04:44:50.080Z,6.8292
2023-03-29T04:45:52.656Z,6.8217
2023-03-29T04:46:55.358Z,6.9537
2023-03-29T04:47:57.912Z,6.7947
2023-03-29T04:49:00.479Z,6.6421
2023-03-29T04:50:02.964Z,6.5345
2023-03-29T04:51:05.482Z,6.6299
2023-03-29T04:52:08.014Z,6.9570
2023-03-29T04:53:10.528Z,7.2520
2023-03-29T04:54:13.088Z,7.3627
2023-03-29T04:55:15.649Z,7.5784
2023-03-29T04:56:18.091Z,7.6125
2023-03-29T04:57:20.685Z,7.8031
2023-03-29T04:59:25.508Z,7.6915
2023-03-29T05:00:28.064Z,7.7657
2023-03-29T05:01:30.587Z,7.7718
2023-03-29T05:02:33.146Z,7.6955
2023-03-29T05:03:35.766Z,7.5504
2023-03-29T05:05:40.584Z,7.5904
2023-03-29T05:06:43.170Z,7.5864
2023-03-29T05:07:45.717Z,7.7024
2023-03-29T05:08:48.172Z,7.6062
2023-03-29T05:09:50.684Z,7.4968
2023-03-29T05:10:53.173Z,7.6745
2023-03-29T05:11:55.727Z,7.7026
2023-03-29T05:14:00.509Z,7.7310
2023-03-29T05:18:10.266Z,7.5177
2023-03-29T05:19:12.810Z,7.8222
2023-03-29T05:20:15.458Z,7.8443
2023-03-29T05:22:20.300Z,7.6602
2023-03-29T05:24:25.073Z,7.6282
2023-03-29T05:25:27.865Z,7.5860
2023-03-29T05:26:30.363Z,7.5279
2023-03-29T05:27:33.021Z,7.4996
2023-03-29T05:28:35.576Z,7.4453
2023-03-29T05:29:38.112Z,7.5467
2023-03-29T05:30:40.599Z,7.5189
2023-03-29T05:31:43.173Z,7.5963
2023-03-29T05:32:45.739Z,7.6967
2023-03-29T05:33:48.188Z,7.6331
2023-03-29T05:35:53.114Z,7.8027
2023-03-29T05:36:55.571Z,7.7546
2023-03-29T05:37:58.092Z,7.5002
2023-03-29T05:40:05.825Z,7.2953
2023-03-29T05:41:04.589Z,7.5946
2023-03-29T05:43:09.596Z,7.5959
2023-03-29T05:44:12.139Z,7.6883
2023-03-29T05:45:14.677Z,7.7581
2023-03-29T05:46:17.234Z,7.6965
2023-03-29T05:47:19.944Z,7.5383
2023-03-29T05:49:24.812Z,7.5200
2023-03-29T05:50:27.330Z,7.5132
2023-03-29T05:52:32.204Z,7.5502
2023-03-29T05:53:34.684Z,7.5151
2023-03-29T05:55:39.466Z,7.3966
2023-03-29T05:56:41.995Z,7.3650
2023-03-29T05:58:46.845Z,7.4689
2023-03-29T05:59:49.283Z,7.4474
2023-03-29T06:00:51.803Z,7.5347
2023-03-29T06:01:54.383Z,7.4273
2023-03-29T06:03:03.654Z,7.4613
2023-03-29T06:05:03.156Z,7.4430
2023-03-29T06:06:05.743Z,7.4876
2023-03-29T06:07:08.192Z,7.5240
2023-03-29T06:08:10.742Z,7.4428
2023-03-29T06:09:13.263Z,7.4542
2023-03-29T06:10:15.757Z,7.3688
2023-03-29T06:11:18.302Z,7.4861
2023-03-29T06:20:39.535Z,8.1445
2023-03-29T06:22:44.328Z,8.3755
2023-03-29T06:23:46.765Z,8.4501
2023-03-29T06:24:49.410Z,8.4695
2023-03-29T06:25:51.871Z,8.4844
2023-03-29T06:27:56.795Z,8.5256
2023-03-29T06:28:59.247Z,8.5451
2023-03-29T06:30:01.744Z,8.5115
2023-03-29T06:31:04.468Z,8.4667
2023-03-29T06:32:07.596Z,8.4279
2023-03-29T06:34:12.371Z,8.4129
2023-03-29T06:35:14.855Z,8.4764
2023-03-29T06:37:19.712Z,8.5365
2023-03-29T06:38:22.148Z,8.6049
2023-03-29T06:39:24.621Z,8.6776
2023-03-29T06:40:27.078Z,8.6166
2023-03-29T06:41:29.542Z,8.6479
2023-03-29T06:42:31.961Z,8.6589
2023-03-29T06:44:36.661Z,8.6728
2023-03-29T06:46:41.516Z,8.8109
2023-03-29T06:47:43.986Z,8.8018
2023-03-29T06:48:46.427Z,8.7808
2023-03-29T06:49:48.869Z,8.7581
2023-03-29T06:50:51.369Z,8.7972
2023-03-29T06:52:56.153Z,8.8956
2023-03-29T06:53:58.586Z,8.7858
2023-03-29T06:55:01.110Z,8.7968
2023-03-29T06:56:03.559Z,8.9446
2023-03-29T06:57:06.058Z,8.9740
2023-03-29T06:58:08.514Z,8.9702
2023-03-29T06:59:10.969Z,8.9870
2023-03-29T07:00:13.444Z,9.0223
2023-03-29T07:01:16.011Z,9.0654
2023-03-29T07:02:18.486Z,9.0948
2023-03-29T07:04:23.270Z,9.0982
2023-03-29T07:05:25.726Z,9.1646
2023-03-29T07:06:28.164Z,9.1716
2023-03-29T07:07:30.617Z,9.1617
2023-03-29T07:08:33.050Z,9.1516
2023-03-29T07:09:35.559Z,9.1056
2023-03-29T07:10:38.031Z,8.7860
2023-03-29T07:12:42.770Z,8.1458
2023-03-29T07:13:45.193Z,8.0701
2023-03-29T07:14:47.647Z,8.1199
2023-03-29T07:15:50.105Z,8.0867
2023-03-29T07:17:54.895Z,7.7939
2023-03-29T07:18:57.338Z,7.8923
2023-03-29T07:19:58.420Z,7.7875
2023-03-29T07:22:03.161Z,7.9328
2023-03-29T07:23:05.571Z,8.1296
2023-03-29T07:24:08.063Z,8.3114
2023-03-29T07:25:10.540Z,8.5025
2023-03-29T07:26:13.026Z,8.4470
2023-03-29T07:27:15.413Z,8.5950
2023-03-29T07:28:17.879Z,8.3543
2023-03-29T07:29:20.359Z,8.4554
2023-03-29T07:30:22.821Z,8.5191
2023-03-29T07:31:25.278Z,8.3539
2023-03-29T07:32:27.825Z,8.2910
2023-03-29T07:34:32.656Z,8.2916
2023-03-29T07:35:35.193Z,8.2523
2023-03-29T07:37:39.922Z,8.2866
2023-03-29T07:38:42.330Z,8.3280
2023-03-29T07:39:44.773Z,8.3608
2023-03-29T07:40:47.233Z,8.2925
2023-03-29T07:42:52.635Z,8.5448
2023-03-29T07:43:55.039Z,8.7167
2023-03-29T07:44:57.477Z,8.6545
2023-03-29T07:45:59.950Z,8.5386
2023-03-29T07:47:02.352Z,8.6061
2023-03-29T07:48:04.932Z,8.8874
2023-03-29T07:49:07.352Z,8.9382
2023-03-29T07:50:09.795Z,9.1716
2023-03-29T07:51:12.206Z,9.1878
2023-03-29T07:52:14.627Z,9.1646
2023-03-29T07:53:17.055Z,9.2666
2023-03-29T07:54:19.538Z,9.3633
2023-03-29T07:55:22.035Z,9.2006
2023-03-29T07:56:24.458Z,9.1728
2023-03-29T07:57:27.219Z,9.3114
2023-03-29T07:59:32.063Z,9.5220
2023-03-29T08:00:34.555Z,9.5903
2023-03-29T08:02:39.170Z,9.6931
2023-03-29T08:03:41.654Z,9.6820
2023-03-29T08:05:46.369Z,9.7002
2023-03-29T08:06:48.774Z,9.6427
2023-03-29T08:07:51.236Z,9.6719
2023-03-29T08:08:53.633Z,9.6662
2023-03-29T08:09:56.031Z,9.4438
2023-03-29T08:10:58.476Z,9.6805
2023-03-29T08:12:00.914Z,9.7475
2023-03-29T08:13:03.330Z,9.6666
2023-03-29T08:14:05.774Z,9.5100
2023-03-29T08:16:10.442Z,9.2399
2023-03-29T08:17:12.941Z,9.0209
2023-03-29T08:19:17.711Z,9.2109
2023-03-29T08:20:20.173Z,9.2206
2023-03-29T08:22:24.843Z,9.1918
2023-03-29T08:24:29.545Z,9.2952
2023-03-29T08:25:32.044Z,9.3475
2023-03-29T08:26:34.431Z,9.1173
2023-03-29T08:27:36.902Z,9.1117
2023-03-29T08:29:41.824Z,9.1777
2023-03-29T08:31:46.526Z,9.4881
2023-03-29T08:32:51.078Z,9.7385
2023-03-29T08:33:51.082Z,9.8843
2023-03-29T08:35:55.825Z,9.9662
2023-03-29T08:38:00.507Z,10.0237
2023-03-29T08:39:02.979Z,10.0303
2023-03-29T08:40:05.372Z,10.2308
2023-03-29T08:41:07.839Z,10.2001
2023-03-29T08:42:10.218Z,10.1966
2023-03-29T08:43:12.676Z,10.1875
2023-03-29T08:44:15.056Z,10.8038
2023-03-29T08:46:19.802Z,10.5514
2023-03-29T08:47:22.247Z,11.0622
2023-03-29T08:49:26.931Z,11.2026
2023-03-29T08:51:31.524Z,11.0573
2023-03-29T08:52:33.993Z,10.9089
2023-03-29T08:53:36.391Z,11.0912
2023-03-29T08:54:38.900Z,11.3676
2023-03-29T08:55:41.386Z,11.4162
2023-03-29T08:57:46.019Z,11.5036
2023-03-29T08:58:48.384Z,11.8107
2023-03-29T08:59:50.810Z,11.9284
2023-03-29T09:00:53.233Z,11.9396
2023-03-29T09:02:58.313Z,12.1620
2023-03-29T09:04:00.902Z,12.1044
2023-03-29T09:06:05.568Z,12.1052
2023-03-29T09:08:10.351Z,12.2423
2023-03-29T09:09:12.776Z,12.4319
2023-03-29T09:11:17.529Z,12.2629
2023-03-29T09:12:19.989Z,12.3674
2023-03-29T09:13:22.387Z,12.2610
2023-03-29T09:14:24.835Z,12.0842
2023-03-29T09:15:27.260Z,12.1906
2023-03-29T09:16:29.763Z,12.1361
2023-03-29T09:17:32.218Z,12.0006
2023-03-29T09:18:34.688Z,11.9043
2023-03-29T09:19:37.072Z,12.2547
2023-03-29T09:20:39.537Z,12.0037
2023-03-29T09:21:41.986Z,11.9064
2023-03-29T09:22:44.376Z,11.9402
2023-03-29T09:24:49.110Z,11.7525
2023-03-29T09:25:54.202Z,11.6049
2023-03-29T09:26:52.221Z,11.4189
2023-03-29T09:27:54.675Z,11.6005
2023-03-29T09:28:57.173Z,11.7544
2023-03-29T09:29:59.560Z,11.6009
2023-03-29T09:31:02.270Z,11.5097
2023-03-29T09:32:04.868Z,11.4939
2023-03-29T09:33:07.363Z,11.4836
2023-03-29T09:34:09.781Z,11.2598
2023-03-29T09:36:14.604Z,10.7414
2023-03-29T09:37:17.004Z,10.7437
2023-03-29T09:38:19.516Z,10.5524
2023-03-29T09:39:21.942Z,10.5877
2023-03-29T09:41:26.646Z,10.7542
2023-03-29T09:42:29.073Z,10.6258
2023-03-29T09:43:31.536Z,10.8093
2023-03-29T09:44:33.936Z,10.8162
2023-03-29T09:46:38.651Z,10.7832
2023-03-29T09:47:41.141Z,10.7658
2023-03-29T09:48:43.597Z,11.0035
2023-03-29T09:49:46.102Z,11.1196
2023-03-29T09:50:48.530Z,11.1610
2023-03-29T09:52:53.268Z,11.4446
2023-03-29T09:53:55.752Z,11.7712
2023-03-29T09:56:00.533Z,11.5364
2023-03-29T09:57:03.058Z,11.6711
2023-03-29T09:58:05.468Z,11.8723
2023-03-29T09:59:07.918Z,12.0962
2023-03-29T10:00:10.352Z,12.2736
2023-03-29T10:01:12.856Z,12.3817
2023-03-29T10:03:17.504Z,12.5677
2023-03-29T10:04:19.981Z,12.7461
2023-03-29T10:06:24.638Z,12.6528
2023-03-29T10:07:27.082Z,12.8624
2023-03-29T10:08:29.483Z,12.7525
2023-03-29T10:09:32.074Z,13.0428
2023-03-29T10:10:34.481Z,13.1191
2023-03-29T10:11:37.022Z,13.4556
2023-03-29T10:12:39.454Z,13.8775
2023-03-29T10:13:41.834Z,13.6721
2023-03-29T10:15:46.494Z,13.7915
2023-03-29T10:16:49.013Z,14.2760
2023-03-29T10:18:53.638Z,13.9405
2023-03-29T10:19:56.061Z,13.9759
2023-03-29T10:20:58.461Z,14.2559
2023-03-29T10:22:00.867Z,14.9811
2023-03-29T10:23:03.307Z,15.3950
2023-03-29T10:24:05.681Z,14.8384
2023-03-29T10:25:08.087Z,14.9788
2023-03-29T10:27:12.740Z,14.3715
2023-03-29T10:28:15.119Z,14.4699
2023-03-29T10:29:17.554Z,14.4968
2023-03-29T10:30:19.945Z,14.5342
2023-03-29T10:31:22.378Z,14.8630
2023-03-29T10:32:24.857Z,15.0204
2023-03-29T10:33:27.197Z,14.6967
2023-03-29T10:34:29.670Z,14.7097
2023-03-29T10:35:32.112Z,15.3460
2023-03-29T10:36:34.510Z,15.5787
2023-03-29T10:37:36.864Z,16.1625
2023-03-29T10:39:41.486Z,17.5706
2023-03-29T10:40:43.801Z,17.0386
2023-03-29T10:41:46.187Z,17.4949
2023-03-29T10:42:48.527Z,18.3434
2023-03-29T10:43:51.149Z,18.0510
2023-03-29T10:44:54.337Z,16.0788
2023-03-29T16:02:32.911Z,15.9616
2023-03-29T16:03:33.139Z,15.9340
2023-03-29T16:04:33.414Z,16.0256
2023-03-29T16:05:33.618Z,15.8551
2023-03-29T16:06:33.795Z,15.7225
2023-03-29T16:07:34.047Z,15.4483
2023-03-29T16:08:34.275Z,15.2529
2023-03-29T16:09:34.445Z,15.3151
2023-03-29T16:10:34.653Z,15.2679
2023-03-29T16:11:34.854Z,15.3045
2023-03-29T16:12:35.045Z,15.3234
2023-03-29T16:13:35.271Z,15.0194
2023-03-29T16:14:35.404Z,14.8294
2023-03-29T16:15:35.650Z,14.5982
2023-03-29T16:16:36.987Z,14.4227
2023-03-29T16:17:37.248Z,14.3555
2023-03-29T16:18:37.463Z,14.2168
2023-03-29T16:19:37.749Z,14.1801
2023-03-29T16:21:37.987Z,14.0291
2023-03-29T16:22:38.239Z,13.9648
2023-03-29T16:23:38.442Z,14.0567
2023-03-29T16:24:38.638Z,13.9745
2023-03-29T16:25:38.852Z,13.9906
2023-03-29T16:26:39.124Z,14.0235
2023-03-29T16:27:39.288Z,13.9380
2023-03-29T16:28:39.498Z,13.8460
2023-03-29T16:29:39.700Z,13.7048
2023-03-29T16:30:39.906Z,13.6917
2023-03-29T16:31:40.331Z,13.7149
2023-03-29T16:32:40.750Z,13.5931
2023-03-29T16:33:41.003Z,13.5039
2023-03-29T16:34:41.514Z,13.4638
2023-03-29T16:35:42.016Z,13.4901
2023-03-29T16:36:42.170Z,13.4424
2023-03-29T16:37:42.391Z,13.2235
2023-03-29T16:38:42.585Z,13.0647
2023-03-29T16:39:42.825Z,12.9647
2023-03-29T16:40:43.005Z,12.8652
2023-03-29T16:41:43.198Z,12.6988
2023-03-29T16:42:43.419Z,12.6161
2023-03-29T16:43:43.615Z,12.5323
2023-03-29T16:44:43.847Z,12.4733
2023-03-29T16:45:44.026Z,12.4300
2023-03-29T16:46:44.234Z,12.3502
2023-03-29T16:47:44.567Z,12.2484
2023-03-29T16:48:44.857Z,12.2782
2023-03-29T16:49:45.953Z,12.1618
2023-03-29T16:50:46.228Z,12.1213
2023-03-29T16:51:46.451Z,12.2026
2023-03-29T16:52:46.702Z,12.1654
2023-03-29T16:53:46.915Z,12.1222
2023-03-29T16:54:47.133Z,12.0502
2023-03-29T16:55:47.352Z,12.0288
2023-03-29T16:56:47.593Z,11.9355
2023-03-29T16:57:47.757Z,11.8493
2023-03-29T16:58:48.022Z,11.8671
2023-03-29T16:59:48.288Z,11.9761
2023-03-29T17:00:48.697Z,11.8232
2023-03-29T17:01:48.926Z,11.8233
2023-03-29T17:02:49.229Z,12.0643
2023-03-29T17:03:49.532Z,12.0094
2023-03-29T17:04:49.931Z,11.8777
2023-03-29T17:05:50.258Z,11.9041
2023-03-29T17:06:50.694Z,11.8128
2023-03-29T17:07:50.899Z,11.8450
2023-03-29T17:08:51.136Z,11.9378
2023-03-29T17:09:51.371Z,11.6955
2023-03-29T17:10:51.596Z,11.7832
2023-03-29T17:11:52.819Z,11.6503
2023-03-29T17:12:53.164Z,11.6001
2023-03-29T17:13:53.499Z,11.4796
2023-03-29T17:14:53.825Z,11.3344
2023-03-29T17:15:54.109Z,11.3078
2023-03-29T17:16:54.339Z,11.3349
2023-03-29T17:17:54.591Z,11.3708
2023-03-29T17:18:54.837Z,11.2553
2023-03-29T17:19:55.192Z,11.2228
2023-03-29T17:20:55.460Z,11.3743
2023-03-29T17:21:55.667Z,11.2291
2023-03-29T17:22:55.973Z,11.3502
2023-03-29T17:23:56.240Z,11.1559
2023-03-29T17:24:56.573Z,11.2321
2023-03-29T17:25:56.778Z,11.0584
2023-03-29T17:26:57.048Z,10.8443
2023-03-29T17:27:57.293Z,10.6328
2023-03-29T17:28:57.503Z,10.8313
2023-03-29T17:30:57.889Z,10.4340
2023-03-29T17:31:58.082Z,10.3694
2023-03-29T17:32:58.299Z,10.5993
2023-03-29T17:33:58.565Z,10.6274
2023-03-29T17:34:58.792Z,10.4733
2023-03-29T17:35:59.288Z,10.2457
2023-03-29T17:36:59.743Z,10.2759
2023-03-29T17:37:59.957Z,10.2604
2023-03-29T17:39:02.364Z,10.5502
2023-03-29T17:40:00.616Z,10.5910
2023-03-29T17:41:00.930Z,10.4201
2023-03-29T17:42:01.168Z,10.4953
2023-03-29T17:43:01.592Z,10.4378
2023-03-29T17:44:01.964Z,10.3634
2023-03-29T17:45:02.205Z,10.3180
2023-03-29T17:46:02.611Z,10.3182
2023-03-29T17:47:03.361Z,10.3542
2023-03-29T17:48:06.246Z,10.3967
2023-03-29T17:49:04.656Z,10.4001
2023-03-29T17:50:05.272Z,10.2851
2023-03-29T17:51:05.625Z,10.4041
2023-03-29T17:52:05.834Z,10.4475
2023-03-29T17:53:06.179Z,10.4809
2023-03-29T17:54:06.480Z,10.3981
2023-03-29T17:55:06.664Z,10.6571
2023-03-29T17:56:06.942Z,10.7916
2023-03-29T17:57:07.171Z,10.6816
2023-03-29T17:58:07.406Z,10.5938
2023-03-29T17:59:07.642Z,10.4314
2023-03-29T18:00:07.938Z,10.2045
2023-03-29T18:01:08.519Z,10.1280
2023-03-29T18:02:08.841Z,10.4177
2023-03-29T18:03:09.071Z,10.4784
2023-03-29T18:04:09.476Z,10.3040
2023-03-29T18:05:09.700Z,10.4246
2023-03-29T18:06:09.916Z,10.3881
2023-03-29T18:07:10.093Z,10.4834
2023-03-29T18:08:10.328Z,10.6770
2023-03-29T18:09:10.520Z,10.7410
2023-03-29T18:10:10.951Z,10.6624
2023-03-29T18:11:11.231Z,10.7477
2023-03-29T18:12:11.481Z,10.6767
2023-03-29T18:13:11.832Z,10.5911
2023-03-29T18:14:12.053Z,10.6282
2023-03-29T18:15:12.251Z,10.3942
2023-03-29T18:16:12.487Z,10.4872
2023-03-29T18:17:12.734Z,10.7742
2023-03-29T18:18:12.910Z,10.5950
2023-03-29T18:19:13.182Z,10.6253
2023-03-29T18:20:13.428Z,10.5569
2023-03-29T18:21:13.715Z,10.6209
2023-03-29T18:22:14.555Z,10.8560
2023-03-29T18:23:15.074Z,10.9537
2023-03-29T18:24:15.478Z,11.0419
2023-03-29T18:25:15.795Z,11.0057
2023-03-29T18:26:16.272Z,10.8705
2023-03-29T18:27:16.536Z,10.5600
2023-03-29T18:28:16.729Z,10.4598
2023-03-29T18:29:17.014Z,10.4375
2023-03-29T18:30:17.292Z,10.4072
2023-03-29T18:31:17.739Z,10.4502
2023-03-29T18:32:18.047Z,10.8118
2023-03-29T18:33:18.328Z,11.0959
2023-03-29T18:34:18.541Z,10.9660
2023-03-29T18:35:18.818Z,10.8850
2023-03-29T18:36:19.074Z,10.9455
2023-03-29T18:37:19.643Z,10.7187
2023-03-29T18:38:19.933Z,10.5595
2023-03-29T18:39:20.171Z,10.7130
2023-03-29T18:40:20.373Z,10.7851
2023-03-29T18:41:20.666Z,10.6032
2023-03-29T18:43:21.011Z,10.7995
2023-03-29T18:44:21.224Z,10.8253
2023-03-29T18:45:21.650Z,10.7878
2023-03-29T18:46:22.110Z,10.7337
2023-03-29T18:47:22.462Z,10.5854
2023-03-29T18:48:22.859Z,10.3641
2023-03-29T18:49:23.072Z,10.2946
2023-03-29T18:50:23.297Z,10.2035
2023-03-29T18:51:23.493Z,10.1968
2023-03-29T18:53:23.794Z,10.0818
2023-03-29T18:54:24.114Z,10.2118
2023-03-29T18:55:24.364Z,10.0804
2023-03-29T18:56:24.595Z,9.8880
2023-03-29T18:57:24.962Z,9.8064
2023-03-29T18:58:25.193Z,10.6357
2023-03-29T18:59:25.458Z,10.8781
2023-03-29T19:00:25.723Z,10.8259
2023-03-29T19:01:25.972Z,10.6837
2023-03-29T19:02:26.263Z,10.7612
2023-03-29T19:03:26.607Z,10.8284
2023-03-29T19:04:27.025Z,10.8285
2023-03-29T19:05:27.340Z,10.6639
2023-03-29T19:06:27.561Z,10.5737
2023-03-29T19:07:27.874Z,10.5844
2023-03-29T19:08:28.229Z,10.6364
2023-03-29T19:09:28.507Z,10.6273
2023-03-29T19:10:28.813Z,10.6287
2023-03-29T19:11:29.176Z,10.5639
2023-03-29T19:12:29.487Z,10.5424
2023-03-29T19:13:29.764Z,10.3986
2023-03-29T19:14:30.078Z,10.3005
2023-03-29T19:15:30.437Z,10.2723
2023-03-29T19:16:30.755Z,10.1802
2023-03-29T19:17:31.074Z,10.0198
2023-03-29T19:18:31.390Z,9.9064
2023-03-29T19:19:31.663Z,9.7753
2023-03-29T19:20:31.922Z,9.7136
2023-03-29T19:21:32.307Z,9.6479
2023-03-29T19:23:32.748Z,9.6060
2023-03-29T19:24:32.977Z,9.5795
2023-03-29T19:25:33.265Z,9.5574
2023-03-29T19:26:33.614Z,9.5677
2023-03-29T19:27:33.885Z,9.5990
2023-03-29T19:28:34.148Z,9.6152
2023-03-29T19:29:34.410Z,9.5946
2023-03-29T19:30:34.697Z,9.5985
2023-03-29T19:31:35.078Z,9.7436
2023-03-29T19:32:35.340Z,9.8381
2023-03-29T19:33:35.612Z,9.8267
2023-03-29T19:34:35.915Z,10.3414
2023-03-29T19:35:36.343Z,10.5350
2023-03-29T19:36:36.589Z,10.3337
2023-03-29T19:37:36.921Z,10.4138
2023-03-29T19:38:37.162Z,10.7010
2023-03-29T19:39:37.459Z,10.5457
2023-03-29T19:40:37.774Z,10.7400
2023-03-29T19:41:39.441Z,10.7488
2023-03-29T19:42:38.526Z,10.7733
2023-03-29T19:43:38.866Z,10.7158
2023-03-29T19:44:39.158Z,10.5111
2023-03-29T19:45:39.432Z,10.4853
2023-03-29T19:46:39.737Z,10.3819
2023-03-29T19:47:40.114Z,10.4637
2023-03-29T19:48:40.454Z,10.2985
2023-03-29T19:49:40.799Z,10.4376
2023-03-29T19:50:41.195Z,10.3535
2023-03-29T19:51:41.520Z,10.3364
2023-03-29T19:52:41.754Z,10.2983
2023-03-29T19:53:42.056Z,10.2730
2023-03-29T19:54:42.357Z,10.2591
2023-03-29T19:55:42.652Z,10.3197
2023-03-29T19:56:43.023Z,10.1675
2023-03-29T19:57:43.393Z,10.0112
2023-03-29T19:58:43.678Z,10.0793
2023-03-29T19:59:44.025Z,10.2035
2023-03-29T20:00:44.285Z,10.5656
2023-03-29T20:01:44.584Z,10.4622
2023-03-29T20:02:44.901Z,10.4416
2023-03-29T20:03:45.326Z,10.4962
2023-03-29T20:04:45.698Z,10.3517
2023-03-29T20:05:46.047Z,10.3245
2023-03-29T20:06:46.400Z,10.2931
2023-03-29T20:08:47.094Z,10.3417